Time;durP1;ratioP1;P1;durP2;ratioP2;P2;SDS_P1;SDS_P2;PMS_P1;PMS_P2;Temp;Humidity;BMP_temperature;BMP_pressure;BME280_temperature;BME280_humidity;BME280_pressure;Samples;Min_cycle;Max_cycle;Signal;HPM_P1;HPM_P2
2020/12/03 00:00:59;;;;;;;43.10;25.85;;;7.30;95.20;;;;;;5048793;28;20033;-43
2020/12/03 00:03:28;;;;;;;44.97;25.15;;;7.30;95.30;;;;;;5048721;28;20037;-43
2020/12/03 00:06:17;;;;;;;41.88;24.45;;;7.30;95.30;;;;;;5048993;28;20068;-42
2020/12/03 00:08:56;;;;;;;44.60;25.38;;;7.30;95.30;;;;;;5048959;28;20032;-41
2020/12/03 00:11:25;;;;;;;43.40;24.67;;;7.30;95.30;;;;;;5048735;28;20037;-42
2020/12/03 00:13:53;;;;;;;42.67;25.17;;;7.30;95.30;;;;;;5048354;28;20591;-43
2020/12/03 00:16:19;;;;;;;39.60;24.17;;;7.30;95.30;;;;;;5048211;28;20025;-42
2020/12/03 00:18:44;;;;;;;41.53;23.35;;;7.30;95.30;;;;;;5049219;28;20381;-43
2020/12/03 00:21:11;;;;;;;38.83;25.08;;;7.30;95.30;;;;;;5047915;28;20032;-43
2020/12/03 00:23:39;;;;;;;50.10;27.85;;;7.30;95.30;;;;;;5048947;28;20091;-43
2020/12/03 00:26:05;;;;;;;47.38;27.65;;;7.30;95.30;;;;;;5048933;28;20041;-43
2020/12/03 00:28:33;;;;;;;43.55;26.67;;;7.30;95.30;;;;;;5048061;28;20025;-43
2020/12/03 00:30:59;;;;;;;46.25;25.60;;;7.30;95.30;;;;;;5048639;28;20092;-42
2020/12/03 00:33:24;;;;;;;44.10;26.98;;;7.30;95.30;;;;;;5048439;28;20021;-43
2020/12/03 00:35:51;;;;;;;41.00;25.67;;;7.30;95.30;;;;;;5048271;28;20754;-42
2020/12/03 00:38:18;;;;;;;45.50;27.30;;;7.30;95.60;;;;;;5048314;28;20028;-43
2020/12/03 00:40:45;;;;;;;47.67;29.13;;;7.30;95.30;;;;;;5048418;28;20124;-42
2020/12/03 00:43:11;;;;;;;52.58;31.80;;;7.30;95.30;;;;;;5047293;28;20033;-43
2020/12/03 00:45:36;;;;;;;50.83;30.95;;;7.30;95.30;;;;;;5048755;28;20029;-43
2020/12/03 00:48:02;;;;;;;51.45;30.27;;;7.30;95.40;;;;;;5048592;28;20435;-43
2020/12/03 00:50:28;;;;;;;46.60;28.65;;;7.30;95.30;;;;;;5047572;28;20025;-43
2020/12/03 00:52:53;;;;;;;53.22;29.35;;;7.30;95.30;;;;;;5048861;28;20049;-43
2020/12/03 00:55:19;;;;;;;50.55;27.80;;;7.30;95.30;;;;;;5047753;28;20380;-44
2020/12/03 00:57:44;;;;;;;49.88;28.50;;;7.30;95.30;;;;;;5048141;28;20037;-43
2020/12/03 01:00:13;;;;;;;51.30;30.20;;;7.30;95.30;;;;;;5047526;28;20423;-43
2020/12/03 01:02:39;;;;;;;55.05;30.67;;;7.30;95.30;;;;;;5048206;28;20091;-43
2020/12/03 01:05:07;;;;;;;51.53;29.20;;;7.30;95.30;;;;;;5047452;28;20412;-43
2020/12/03 01:07:33;;;;;;;53.67;30.80;;;7.30;95.30;;;;;;5048264;28;20025;-42
2020/12/03 01:09:59;;;;;;;51.53;30.20;;;7.30;95.30;;;;;;5048117;28;20085;-42
2020/12/03 01:12:24;;;;;;;57.10;30.13;;;7.40;95.50;;;;;;5047328;28;20774;-43
2020/12/03 01:14:50;;;;;;;48.28;28.55;;;7.40;95.30;;;;;;5048271;28;20159;-42
2020/12/03 01:17:16;;;;;;;52.85;29.38;;;7.30;95.20;;;;;;5047234;28;20029;-42
2020/12/03 01:19:42;;;;;;;50.47;29.15;;;7.30;95.20;;;;;;5048654;28;20025;-42
2020/12/03 01:22:08;;;;;;;45.05;27.17;;;7.30;95.30;;;;;;5047587;28;20047;-43
2020/12/03 01:24:35;;;;;;;57.40;32.00;;;7.40;95.30;;;;;;5047742;28;20025;-43
2020/12/03 01:27:01;;;;;;;55.30;30.23;;;7.30;95.20;;;;;;5048181;28;20077;-44
2020/12/03 01:29:27;;;;;;;42.97;24.63;;;7.30;95.30;;;;;;5047221;28;20021;-42
2020/12/03 01:31:52;;;;;;;45.53;27.20;;;7.30;95.30;;;;;;5047401;28;20110;-42
2020/12/03 01:34:19;;;;;;;50.10;29.10;;;7.40;95.30;;;;;;5047739;28;20029;-42
2020/12/03 01:36:50;;;;;;;48.53;27.48;;;7.40;95.30;;;;;;5047934;28;20023;-43
2020/12/03 01:39:15;;;;;;;46.38;25.88;;;7.30;95.30;;;;;;5046806;28;20113;-43
2020/12/03 01:41:41;;;;;;;48.17;27.58;;;7.30;95.30;;;;;;5047674;28;20124;-43
2020/12/03 01:44:06;;;;;;;49.72;28.38;;;7.30;95.30;;;;;;5048021;28;20144;-43
2020/12/03 01:46:32;;;;;;;46.47;29.30;;;7.30;95.30;;;;;;5047308;28;20499;-43
2020/12/03 01:49:18;;;;;;;47.47;27.90;;;7.30;95.30;;;;;;5047903;28;20029;-43
2020/12/03 01:51:49;;;;;;;46.85;25.67;;;7.30;95.30;;;;;;5047734;28;20029;-43
2020/12/03 01:54:17;;;;;;;40.13;24.02;;;7.30;95.30;;;;;;5046943;28;20025;-43
2020/12/03 01:56:58;;;;;;;42.85;26.05;;;7.30;95.30;;;;;;5047873;28;20032;-42
2020/12/03 01:59:28;;;;;;;43.00;24.35;;;7.30;95.30;;;;;;5046785;28;20052;-42
2020/12/03 02:01:55;;;;;;;43.58;25.95;;;7.30;95.30;;;;;;5047664;28;20033;-43
2020/12/03 02:04:21;;;;;;;48.70;27.48;;;7.20;95.30;;;;;;5047008;28;20036;-43
2020/12/03 02:06:56;;;;;;;50.55;27.70;;;7.20;95.20;;;;;;5047137;28;20103;-43
2020/12/03 02:09:21;;;;;;;47.55;27.63;;;7.20;95.30;;;;;;5047325;28;20057;-43
2020/12/03 02:11:47;;;;;;;47.35;27.90;;;7.20;95.30;;;;;;5047746;28;20149;-42
2020/12/03 02:14:12;;;;;;;51.85;29.00;;;7.20;95.30;;;;;;5046431;28;20036;-43
2020/12/03 02:16:40;;;;;;;46.63;27.20;;;7.10;95.30;;;;;;5049508;28;20021;-43
2020/12/03 02:19:25;;;;;;;41.03;23.83;;;7.20;95.30;;;;;;5050574;28;20029;-42
2020/12/03 02:22:01;;;;;;;41.83;24.63;;;7.10;95.30;;;;;;5050747;28;20077;-42
2020/12/03 02:24:39;;;;;;;44.58;24.50;;;7.10;95.30;;;;;;5050732;28;20136;-42
2020/12/03 02:27:06;;;;;;;40.63;24.23;;;7.10;95.30;;;;;;5051016;28;20032;-44
2020/12/03 02:29:32;;;;;;;43.70;25.88;;;7.00;95.30;;;;;;5050148;28;20052;-41
2020/12/03 02:31:57;;;;;;;40.67;23.90;;;7.00;95.30;;;;;;5051378;28;20036;-42
2020/12/03 02:34:23;;;;;;;40.10;22.52;;;7.00;95.30;;;;;;5050311;28;20415;-43
2020/12/03 02:36:51;;;;;;;42.13;25.55;;;7.00;95.30;;;;;;5050378;28;20167;-41
2020/12/03 02:39:16;;;;;;;39.80;23.70;;;7.00;95.30;;;;;;5050367;28;20086;-42
2020/12/03 02:41:42;;;;;;;39.95;23.58;;;7.00;95.30;;;;;;5050355;28;20511;-44
2020/12/03 02:44:07;;;;;;;44.13;24.30;;;7.10;95.30;;;;;;5050154;28;20036;-42
2020/12/03 02:46:33;;;;;;;42.00;23.48;;;7.10;95.30;;;;;;5051061;28;20036;-42
2020/12/03 02:48:58;;;;;;;39.20;23.55;;;7.10;95.60;;;;;;5050260;28;20079;-43
2020/12/03 02:51:24;;;;;;;45.28;25.02;;;7.10;95.30;;;;;;5050065;28;20041;-43
2020/12/03 02:53:49;;;;;;;41.72;24.42;;;7.10;95.20;;;;;;5050734;28;20029;-43
2020/12/03 02:56:15;;;;;;;40.67;24.38;;;7.00;95.20;;;;;;5049241;28;20029;-43
2020/12/03 02:58:40;;;;;;;36.47;20.50;;;7.00;95.20;;;;;;5050347;28;20102;-43
2020/12/03 03:01:06;;;;;;;38.47;21.77;;;7.00;95.20;;;;;;5050136;28;20095;-42
2020/12/03 03:03:31;;;;;;;38.33;22.13;;;7.00;95.20;;;;;;5049665;28;20048;-43
2020/12/03 03:05:57;;;;;;;41.03;23.40;;;7.00;95.20;;;;;;5050594;28;20099;-43
2020/12/03 03:08:23;;;;;;;38.28;20.88;;;7.00;95.20;;;;;;5049451;28;20144;-43
2020/12/03 03:10:48;;;;;;;37.17;20.63;;;7.00;95.20;;;;;;5049910;28;20032;-43
2020/12/03 03:13:14;;;;;;;34.05;20.35;;;6.90;95.20;;;;;;5049753;28;20029;-44
2020/12/03 03:15:40;;;;;;;45.08;22.17;;;6.90;95.20;;;;;;5049893;28;20027;-42
2020/12/03 03:18:05;;;;;;;34.97;20.58;;;6.90;95.20;;;;;;5049396;28;20029;-43
2020/12/03 03:20:31;;;;;;;30.27;18.67;;;6.90;95.20;;;;;;5049695;28;20112;-43
2020/12/03 03:22:56;;;;;;;34.20;20.50;;;6.90;95.20;;;;;;5050087;28;20040;-42
2020/12/03 03:25:21;;;;;;;36.85;21.17;;;6.90;95.20;;;;;;5048888;28;20033;-42
2020/12/03 03:27:47;;;;;;;37.33;20.48;;;6.90;95.20;;;;;;5049426;28;20032;-42
2020/12/03 03:30:13;;;;;;;38.72;20.70;;;6.90;95.20;;;;;;5049435;28;20468;-43
2020/12/03 03:32:39;;;;;;;33.53;19.83;;;6.90;95.20;;;;;;5049740;28;20032;-43
2020/12/03 03:35:05;;;;;;;36.80;21.05;;;6.90;95.20;;;;;;5049750;28;20017;-43
2020/12/03 03:37:32;;;;;;;32.63;18.95;;;6.80;95.20;;;;;;5049510;28;20029;-42
2020/12/03 03:40:01;;;;;;;29.73;18.50;;;6.90;95.20;;;;;;5049227;28;20036;-44
2020/12/03 03:42:26;;;;;;;33.35;20.30;;;6.90;95.20;;;;;;5048905;28;20059;-43
2020/12/03 03:44:52;;;;;;;33.03;19.30;;;6.90;95.10;;;;;;5048851;28;20025;-43
2020/12/03 03:47:17;;;;;;;37.50;20.05;;;6.90;95.10;;;;;;5048932;28;20060;-43
2020/12/03 03:49:43;;;;;;;35.90;19.83;;;6.90;95.20;;;;;;5049879;28;20024;-43
2020/12/03 03:52:08;;;;;;;34.03;19.02;;;6.90;95.20;;;;;;5048388;28;20061;-44
2020/12/03 03:54:34;;;;;;;33.22;18.52;;;6.90;95.10;;;;;;5049309;28;20535;-43
2020/12/03 03:56:59;;;;;;;38.83;19.40;;;6.90;95.10;;;;;;5049087;28;20025;-42
2020/12/03 03:59:25;;;;;;;33.78;19.02;;;6.90;95.10;;;;;;5048749;28;20033;-43
2020/12/03 04:01:50;;;;;;;33.53;19.17;;;7.00;95.10;;;;;;5049202;28;20477;-43
2020/12/03 04:04:16;;;;;;;35.65;20.08;;;7.00;95.00;;;;;;5048764;28;20358;-43
2020/12/03 04:06:41;;;;;;;37.47;20.25;;;7.00;95.00;;;;;;5048791;28;20069;-43
2020/12/03 04:09:07;;;;;;;27.40;17.05;;;7.00;94.90;;;;;;5048960;28;20039;-43
2020/12/03 04:11:32;;;;;;;29.42;17.13;;;7.00;95.00;;;;;;5048809;28;20277;-44
2020/12/03 04:13:58;;;;;;;30.70;18.73;;;7.00;95.00;;;;;;5048881;28;20044;-44
2020/12/03 04:16:23;;;;;;;32.40;19.95;;;7.00;94.90;;;;;;5048476;28;20033;-42
2020/12/03 04:18:49;;;;;;;44.67;22.23;;;7.00;95.00;;;;;;5049027;28;20032;-43
2020/12/03 04:21:16;;;;;;;33.83;19.17;;;7.00;94.80;;;;;;5048043;28;20371;-42
2020/12/03 04:23:42;;;;;;;31.50;19.42;;;7.00;94.80;;;;;;5048734;28;20096;-43
2020/12/03 04:26:09;;;;;;;32.85;19.00;;;7.00;94.90;;;;;;5048114;28;20052;-43
2020/12/03 04:28:35;;;;;;;34.13;17.85;;;7.10;94.90;;;;;;5048787;28;20104;-43
2020/12/03 04:31:00;;;;;;;31.45;18.23;;;7.00;94.90;;;;;;5048929;28;20174;-43
2020/12/03 04:33:26;;;;;;;30.60;18.80;;;7.10;94.90;;;;;;5048159;28;20475;-42
2020/12/03 04:35:52;;;;;;;33.55;18.80;;;7.10;94.90;;;;;;5048504;28;20362;-42
2020/12/03 04:38:17;;;;;;;30.95;18.40;;;7.10;94.90;;;;;;5047924;28;20432;-43
2020/12/03 04:40:45;;;;;;;35.92;20.23;;;7.10;94.80;;;;;;5047389;28;20033;-43
2020/12/03 04:43:38;;;;;;;34.58;19.25;;;7.10;94.70;;;;;;5047503;28;20048;-43
2020/12/03 04:46:05;;;;;;;32.47;18.92;;;7.10;94.70;;;;;;5048553;28;20021;-43
2020/12/03 04:48:57;;;;;;;32.85;18.45;;;7.00;94.70;;;;;;5047695;28;20032;-43
2020/12/03 04:51:23;;;;;;;34.42;19.25;;;7.10;94.80;;;;;;5047684;28;20044;-43
2020/12/03 04:54:07;;;;;;;31.10;19.60;;;7.10;94.80;;;;;;5048664;28;20033;-43
2020/12/03 04:56:44;;;;;;;34.08;19.92;;;7.10;94.80;;;;;;5047898;28;20354;-43
2020/12/03 04:59:47;;;;;;;29.60;17.75;;;7.10;94.80;;;;;;5047758;28;20044;-41
2020/12/03 05:02:43;;;;;;;38.90;20.55;;;7.10;94.80;;;;;;5047111;28;20442;-43
2020/12/03 05:05:15;;;;;;;38.22;20.65;;;7.10;94.80;;;;;;5047626;28;20464;-42
2020/12/03 05:07:43;;;;;;;30.02;18.98;;;7.10;94.70;;;;;;5048358;28;20068;-43
2020/12/03 05:10:33;;;;;;;30.50;19.30;;;7.10;94.70;;;;;;5047037;28;20033;-42
2020/12/03 05:13:00;;;;;;;29.05;17.98;;;7.10;94.80;;;;;;5048099;28;20473;-43
2020/12/03 05:15:33;;;;;;;34.55;18.15;;;7.10;94.80;;;;;;5047516;28;20512;-42
2020/12/03 05:18:39;;;;;;;32.70;18.50;;;7.10;94.80;;;;;;5047768;28;20384;-43
2020/12/03 05:21:12;;;;;;;31.50;18.27;;;7.10;94.80;;;;;;5048293;28;20115;-42
2020/12/03 05:23:37;;;;;;;36.72;20.13;;;7.10;94.70;;;;;;5047557;28;20132;-43
2020/12/03 05:26:34;;;;;;;31.10;18.75;;;7.10;94.70;;;;;;5048434;28;20108;-43
2020/12/03 05:29:11;;;;;;;35.30;20.83;;;7.10;94.80;;;;;;5048675;28;20404;-43
2020/12/03 05:31:43;;;;;;;36.15;19.85;;;7.10;94.80;;;;;;5047533;28;20017;-42
2020/12/03 05:34:18;;;;;;;34.33;19.95;;;7.10;94.80;;;;;;5047235;28;20025;-42
2020/12/03 05:37:09;;;;;;;32.55;19.30;;;7.10;94.70;;;;;;5047854;28;20036;-43
2020/12/03 05:39:40;;;;;;;29.65;18.80;;;7.10;94.80;;;;;;5048064;28;20025;-43
2020/12/03 05:42:09;;;;;;;28.13;17.50;;;7.10;94.80;;;;;;5047507;28;20139;-42
2020/12/03 05:44:41;;;;;;;27.67;17.50;;;7.10;94.80;;;;;;5047326;28;20163;-43
2020/12/03 05:47:28;;;;;;;27.35;16.42;;;7.20;94.80;;;;;;5047994;28;20032;-44
2020/12/03 05:49:57;;;;;;;32.45;17.65;;;7.10;94.80;;;;;;5047955;28;20070;-43
2020/12/03 05:52:26;;;;;;;29.42;17.75;;;7.10;94.80;;;;;;5050129;28;20025;-42
2020/12/03 05:55:07;;;;;;;30.10;18.02;;;7.10;94.80;;;;;;5052068;28;20029;-42
2020/12/03 05:57:36;;;;;;;33.25;18.55;;;7.10;94.90;;;;;;5051595;28;20040;-42
2020/12/03 06:00:16;;;;;;;25.75;16.52;;;7.10;94.90;;;;;;5051220;28;20143;-43
2020/12/03 06:02:58;;;;;;;31.42;18.92;;;7.10;94.90;;;;;;5051728;28;20083;-42
2020/12/03 06:05:33;;;;;;;32.25;18.92;;;7.10;94.90;;;;;;5050816;28;20056;-42
2020/12/03 06:08:11;;;;;;;31.17;16.67;;;7.10;95.00;;;;;;5051378;28;20033;-42
2020/12/03 06:11:02;;;;;;;30.88;17.77;;;7.10;95.00;;;;;;5051653;28;20060;-43
2020/12/03 06:13:52;;;;;;;26.50;16.88;;;7.10;95.00;;;;;;5050960;28;20082;-42
2020/12/03 06:16:40;;;;;;;26.15;14.88;;;7.10;95.00;;;;;;5050784;28;20063;-42
2020/12/03 06:19:30;;;;;;;26.88;15.60;;;7.10;95.00;;;;;;5051210;28;20048;-43
2020/12/03 06:22:06;;;;;;;22.08;15.18;;;7.10;95.00;;;;;;5050769;28;20097;-42
2020/12/03 06:24:55;;;;;;;20.52;14.27;;;7.10;95.10;;;;;;5051310;28;20029;-43
2020/12/03 06:27:57;;;;;;;23.33;15.25;;;7.00;95.20;;;;;;5050353;28;20114;-43
2020/12/03 06:30:27;;;;;;;18.58;12.85;;;7.00;95.20;;;;;;5050259;28;20522;-44
2020/12/03 06:33:12;;;;;;;20.30;14.07;;;7.00;95.20;;;;;;5051028;28;20082;-43
2020/12/03 06:36:14;;;;;;;21.10;13.40;;;7.00;95.20;;;;;;5050505;28;20028;-43
2020/12/03 06:38:40;;;;;;;21.70;14.50;;;7.00;95.30;;;;;;5051101;28;20134;-43
2020/12/03 06:41:30;;;;;;;22.52;15.38;;;7.00;95.30;;;;;;5050109;28;20504;-44
2020/12/03 06:44:10;;;;;;;18.60;13.15;;;7.00;95.30;;;;;;5050914;28;20041;-43
2020/12/03 06:47:18;;;;;;;20.00;12.88;;;7.00;95.30;;;;;;5050947;28;20051;-44
2020/12/03 06:50:13;;;;;;;19.33;13.85;;;7.00;95.40;;;;;;5050322;28;20063;-43
2020/12/03 06:53:06;;;;;;;19.55;14.73;;;7.00;95.50;;;;;;5050964;28;20040;-42
2020/12/03 06:55:32;;;;;;;;;;;7.00;95.50;;;;;;5050669;28;20045;-41
2020/12/03 06:58:35;;;;;;;20.40;14.00;;;6.90;95.60;;;;;;5049481;28;19914;-43
2020/12/03 07:01:38;;;;;;;19.73;14.65;;;7.00;95.60;;;;;;5047492;28;20040;-42
2020/12/03 07:04:51;;;;;;;19.77;14.52;;;7.00;95.60;;;;;;5047200;28;20043;-42
2020/12/03 07:07:27;;;;;;;;;;;7.00;95.70;;;;;;5049722;28;20025;-43
2020/12/03 07:10:26;;;;;;;20.75;14.73;;;6.90;95.70;;;;;;5056403;28;19947;-43
2020/12/03 07:13:23;;;;;;;19.55;14.00;;;6.90;95.80;;;;;;5069007;28;20062;-43
2020/12/03 07:16:12;;;;;;;17.10;12.82;;;6.90;95.90;;;;;;5068769;28;20558;-45
2020/12/03 07:19:17;;;;;;;17.40;12.73;;;6.90;95.90;;;;;;5069290;28;20055;-43
2020/12/03 07:22:04;;;;;;;17.05;12.50;;;6.90;95.90;;;;;;5066972;28;20166;-41
2020/12/03 07:24:33;;;;;;;16.60;12.23;;;6.90;96.00;;;;;;5069012;28;20154;-42
2020/12/03 07:27:05;;;;;;;20.35;13.48;;;6.90;96.00;;;;;;5070006;28;20081;-43
2020/12/03 07:30:20;;;;;;;23.75;15.98;;;6.90;96.10;;;;;;5069426;28;20491;-43
2020/12/03 07:32:53;;;;;;;25.50;15.93;;;6.90;96.20;;;;;;4988063;28;20113;-43
2020/12/03 07:35:25;;;;;;;27.27;15.55;;;6.90;96.20;;;;;;5064647;28;20048;-42
2020/12/03 07:38:04;;;;;;;31.27;18.90;;;6.90;96.20;;;;;;5069193;28;20047;-42
2020/12/03 07:40:30;;;;;;;29.50;17.52;;;6.90;96.10;;;;;;5068893;28;20372;-43
2020/12/03 07:43:13;;;;;;;30.83;18.58;;;6.90;96.10;;;;;;5060189;28;20068;-43
2020/12/03 07:45:43;;;;;;;;;;;6.90;96.10;;;;;;5056589;28;20127;-42
2020/12/03 07:48:12;;;;;;;27.50;17.30;;;6.90;96.10;;;;;;5054413;28;19909;-44
2020/12/03 07:50:42;;;;;;;33.60;19.10;;;6.90;96.10;;;;;;5062865;28;20048;-43
2020/12/03 07:53:24;;;;;;;28.30;18.58;;;6.90;96.10;;;;;;5056658;28;20032;-43
2020/12/03 07:55:51;;;;;;;29.98;18.40;;;6.90;96.20;;;;;;5054568;28;20082;-43
2020/12/03 07:58:31;;;;;;;29.23;19.08;;;6.90;96.20;;;;;;5068306;28;20024;-42
2020/12/03 08:00:56;;;;;;;30.95;19.13;;;6.90;96.20;;;;;;5069346;28;20028;-42
2020/12/03 08:03:39;;;;;;;32.50;19.52;;;6.90;96.20;;;;;;5068724;28;20105;-43
2020/12/03 08:06:37;;;;;;;31.40;19.75;;;6.90;96.10;;;;;;5068793;28;20052;-43
2020/12/03 08:09:03;;;;;;;29.92;18.85;;;6.90;96.10;;;;;;5069120;28;20393;-44
2020/12/03 08:11:57;;;;;;;37.97;21.30;;;6.90;96.10;;;;;;5068975;28;20498;-42
2020/12/03 08:14:28;;;;;;;32.53;20.45;;;7.00;96.10;;;;;;5067941;28;20058;-43
2020/12/03 08:16:55;;;;;;;33.17;19.67;;;7.00;96.00;;;;;;5069159;28;20033;-41
2020/12/03 08:19:30;;;;;;;35.92;21.08;;;7.00;96.00;;;;;;5068169;28;20430;-43
2020/12/03 08:21:57;;;;;;;27.75;18.55;;;7.00;96.00;;;;;;5063598;28;20033;-42
2020/12/03 08:24:29;;;;;;;28.88;18.08;;;7.00;96.00;;;;;;5058267;28;20510;-44
2020/12/03 08:27:02;;;;;;;29.85;18.30;;;7.00;96.00;;;;;;5063625;28;20024;-42
2020/12/03 08:29:37;;;;;;;27.95;16.83;;;7.00;96.00;;;;;;5048560;28;20035;-43
2020/12/03 08:32:02;;;;;;;28.67;17.35;;;7.00;96.00;;;;;;5048763;28;20025;-42
2020/12/03 08:34:44;;;;;;;25.33;17.13;;;6.90;96.00;;;;;;5048113;28;20090;-42
2020/12/03 08:37:13;;;;;;;24.33;15.63;;;6.90;96.00;;;;;;5047993;28;20083;-43
2020/12/03 08:39:43;;;;;;;24.67;15.80;;;6.90;96.10;;;;;;5049089;28;20112;-43
2020/12/03 08:42:10;;;;;;;24.65;15.07;;;6.90;96.10;;;;;;5029168;28;20090;-43
2020/12/03 08:44:37;;;;;;;23.75;16.38;;;7.00;96.10;;;;;;5048856;28;20056;-43
2020/12/03 08:47:10;;;;;;;24.73;15.80;;;7.00;96.10;;;;;;5048743;28;20028;-43
2020/12/03 08:49:43;;;;;;;25.58;17.05;;;6.90;96.10;;;;;;5048133;28;20017;-43
2020/12/03 08:52:09;;;;;;;27.25;17.02;;;7.00;96.10;;;;;;5048426;28;20032;-41
2020/12/03 08:54:35;;;;;;;22.70;14.27;;;7.00;96.10;;;;;;5048577;28;20021;-42
2020/12/03 08:57:06;;;;;;;33.88;17.23;;;7.00;96.10;;;;;;5048567;28;20055;-43
2020/12/03 08:59:38;;;;;;;26.95;16.73;;;7.00;96.10;;;;;;5030122;28;20045;-42
2020/12/03 09:02:09;;;;;;;30.00;16.75;;;7.00;96.00;;;;;;5047953;28;20558;-43
2020/12/03 09:04:44;;;;;;;29.67;16.33;;;7.00;96.00;;;;;;5048544;28;20033;-42
2020/12/03 09:07:13;;;;;;;27.67;16.48;;;7.00;95.90;;;;;;5048180;28;20126;-43
2020/12/03 09:09:44;;;;;;;24.98;15.50;;;7.00;95.90;;;;;;5047839;28;20032;-42
2020/12/03 09:12:12;;;;;;;26.35;14.80;;;7.00;95.90;;;;;;5047996;28;20055;-44
2020/12/03 09:14:40;;;;;;;29.00;15.23;;;7.00;95.90;;;;;;5048529;28;20086;-43
2020/12/03 09:17:09;;;;;;;26.55;15.63;;;7.00;95.90;;;;;;5047807;28;20062;-42
2020/12/03 09:19:35;;;;;;;26.92;16.83;;;7.00;95.70;;;;;;5045728;28;20476;-43
2020/12/03 09:22:02;;;;;;;26.33;16.08;;;7.10;95.80;;;;;;5048210;28;20040;-43
2020/12/03 09:24:28;;;;;;;33.35;17.95;;;7.00;95.60;;;;;;5047758;28;20029;-43
2020/12/03 09:26:58;;;;;;;31.30;16.42;;;7.00;95.60;;;;;;5050603;28;20035;-43
2020/12/03 09:29:24;;;;;;;29.58;17.73;;;7.00;95.50;;;;;;5051798;28;20028;-43
2020/12/03 09:31:58;;;;;;;31.17;17.48;;;7.00;95.60;;;;;;5052235;28;20379;-43
2020/12/03 09:34:26;;;;;;;23.42;15.45;;;7.10;95.60;;;;;;5051601;28;20724;-44
2020/12/03 09:36:52;;;;;;;29.13;16.88;;;7.00;95.60;;;;;;5051541;28;20475;-42
2020/12/03 09:39:17;;;;;;;24.52;16.55;;;7.00;95.80;;;;;;5051658;28;20033;-42
2020/12/03 09:41:43;;;;;;;27.63;16.33;;;7.00;95.60;;;;;;5051940;28;20060;-42
2020/12/03 09:44:14;;;;;;;25.27;15.88;;;7.00;95.60;;;;;;5050936;28;20067;-43
2020/12/03 09:46:44;;;;;;;25.75;15.77;;;7.00;95.60;;;;;;5052137;28;20040;-42
2020/12/03 09:49:12;;;;;;;21.38;15.18;;;7.00;95.60;;;;;;5051703;28;20084;-43
2020/12/03 09:51:39;;;;;;;25.15;16.08;;;7.00;95.70;;;;;;5051642;28;20383;-42
2020/12/03 09:54:04;;;;;;;29.25;17.60;;;7.00;95.70;;;;;;5051812;28;20036;-43
2020/12/03 09:56:36;;;;;;;27.63;18.00;;;7.00;95.70;;;;;;5051759;28;20024;-42
2020/12/03 09:59:02;;;;;;;32.65;19.20;;;7.00;95.80;;;;;;5051388;28;20078;-42
2020/12/03 10:01:58;;;;;;;31.48;18.75;;;6.90;95.90;;;;;;5051232;28;20427;-43
2020/12/03 10:04:54;;;;;;;26.17;16.15;;;6.90;96.00;;;;;;5059075;28;20463;-44
2020/12/03 10:07:55;;;;;;;27.80;17.38;;;6.90;96.00;;;;;;5071233;28;20063;-44
2020/12/03 10:10:23;;;;;;;28.45;18.63;;;6.90;96.10;;;;;;5070851;28;20551;-43
2020/12/03 10:13:10;;;;;;;25.52;16.88;;;6.90;96.10;;;;;;5071132;28;20085;-41
2020/12/03 10:16:04;;;;;;;28.20;18.48;;;6.90;96.10;;;;;;5071232;28;20040;-43
2020/12/03 10:18:52;;;;;;;30.38;19.08;;;6.90;96.00;;;;;;5070809;28;20028;-43
2020/12/03 10:21:23;;;;;;;33.50;19.08;;;6.90;96.10;;;;;;5070952;28;20562;-43
2020/12/03 10:24:00;;;;;;;26.60;17.77;;;6.90;96.10;;;;;;5071182;28;20399;-44
2020/12/03 10:26:47;;;;;;;26.15;18.70;;;6.90;96.20;;;;;;5070275;28;20032;-43
2020/12/03 10:29:36;;;;;;;27.08;17.67;;;6.90;96.20;;;;;;5070606;28;20048;-43
2020/12/03 10:32:13;;;;;;;27.83;18.15;;;6.90;96.20;;;;;;5071483;28;20028;-43
2020/12/03 10:34:44;;;;;;;30.35;18.85;;;6.90;96.20;;;;;;5070523;28;20028;-42
2020/12/03 10:37:50;;;;;;;28.40;18.00;;;6.90;96.20;;;;;;5070448;28;20029;-43
2020/12/03 10:40:18;;;;;;;28.60;18.20;;;6.90;96.10;;;;;;5069306;28;20039;-42
2020/12/03 10:43:07;;;;;;;28.48;18.85;;;6.90;96.10;;;;;;5070763;28;20056;-42
2020/12/03 10:45:38;;;;;;;33.00;20.33;;;6.90;96.10;;;;;;5070255;28;20435;-42
2020/12/03 10:48:17;;;;;;;32.88;20.08;;;6.90;96.10;;;;;;5070554;28;20043;-43
2020/12/03 10:50:53;;;;;;;30.27;19.40;;;6.80;96.10;;;;;;5071212;28;20121;-43
2020/12/03 10:53:27;;;;;;;28.90;18.08;;;6.80;96.20;;;;;;5070073;28;20471;-42
2020/12/03 10:55:58;;;;;;;30.75;18.17;;;6.90;96.20;;;;;;5070137;28;20025;-42
2020/12/03 10:58:29;;;;;;;35.15;19.73;;;6.90;96.20;;;;;;5064237;28;20024;-42
2020/12/03 11:00:56;;;;;;;31.88;19.08;;;6.90;96.10;;;;;;5058205;28;20157;-43
2020/12/03 11:03:28;;;;;;;31.80;18.25;;;6.90;96.10;;;;;;5064556;28;20383;-42
2020/12/03 11:05:55;;;;;;;31.15;19.02;;;6.90;96.40;;;;;;5070405;28;20476;-48
2020/12/03 11:08:22;;;;;;;27.17;18.08;;;6.90;95.90;;;;;;5069686;28;20488;-43
2020/12/03 11:10:53;;;;;;;32.78;18.73;;;7.00;96.00;;;;;;5070179;28;20017;-43
2020/12/03 11:13:20;;;;;;;31.67;19.52;;;7.00;96.00;;;;;;5070042;28;20038;-42
2020/12/03 11:15:48;;;;;;;29.13;19.67;;;6.90;95.80;;;;;;5070296;28;20074;-42
2020/12/03 11:18:19;;;;;;;30.75;19.08;;;6.90;95.80;;;;;;5062560;28;20026;-43
2020/12/03 11:20:51;;;;;;;30.95;19.02;;;7.00;95.90;;;;;;5030397;28;20079;-43
2020/12/03 11:23:22;;;;;;;32.70;20.70;;;7.00;96.00;;;;;;5062366;28;20028;-42
2020/12/03 11:25:51;;;;;;;31.08;18.80;;;7.00;95.90;;;;;;5065055;28;20021;-41
2020/12/03 11:28:29;;;;;;;27.90;18.67;;;7.00;95.90;;;;;;5049528;28;20037;-43
2020/12/03 11:31:02;;;;;;;34.28;20.20;;;7.10;95.80;;;;;;5049639;28;20029;-43
2020/12/03 11:33:33;;;;;;;28.17;19.02;;;7.10;95.80;;;;;;5049407;28;20570;-43
2020/12/03 11:36:14;;;;;;;32.45;19.52;;;7.10;95.70;;;;;;5049771;28;20036;-43
2020/12/03 11:38:42;;;;;;;30.95;18.98;;;7.10;95.50;;;;;;5060036;28;20060;-43
2020/12/03 11:41:18;;;;;;;26.98;18.88;;;7.10;95.60;;;;;;5063096;28;20033;-42
2020/12/03 11:48:54;;;;;;;27.33;17.42;;;7.20;95.50;;;;;;5056567;28;20029;-43
2020/12/03 11:51:29;;;;;;;27.17;18.17;;;7.20;95.50;;;;;;5048608;28;20388;-42
2020/12/03 11:54:09;;;;;;;28.60;18.27;;;7.20;95.40;;;;;;5049840;28;20511;-43
2020/12/03 11:56:37;;;;;;;28.20;18.15;;;7.20;95.40;;;;;;5057588;28;20025;-43
2020/12/03 11:59:21;;;;;;;27.67;17.92;;;7.20;95.30;;;;;;5062712;28;20983;-42
2020/12/03 12:02:02;;;;;;;26.33;18.40;;;7.20;95.20;;;;;;5029813;28;20037;-41
2020/12/03 12:05:04;;;;;;;26.40;17.48;;;7.20;95.20;;;;;;5028490;28;20076;-44
2020/12/03 12:07:27;;;;;;;24.95;16.98;;;7.20;95.30;;;;;;5026625;28;20069;-45
2020/12/03 12:10:15;;;;;;;28.25;18.17;;;7.20;95.30;;;;;;5029472;28;20042;-43
2020/12/03 12:12:41;;;;;;;24.92;17.35;;;7.20;95.20;;;;;;5029215;28;20049;-42
2020/12/03 12:15:06;;;;;;;26.40;18.67;;;7.20;95.00;;;;;;5028808;28;20053;-42
2020/12/03 12:17:35;;;;;;;23.15;16.55;;;7.20;94.90;;;;;;5029416;28;20453;-43
2020/12/03 12:20:05;;;;;;;21.38;15.25;;;7.20;94.90;;;;;;5028755;28;20032;-42
2020/12/03 12:22:31;;;;;;;26.15;16.20;;;7.20;95.00;;;;;;5029056;28;20171;-43
2020/12/03 12:24:58;;;;;;;25.60;15.48;;;7.20;95.00;;;;;;5031500;28;20104;-44
2020/12/03 12:27:24;;;;;;;24.50;16.63;;;7.20;95.10;;;;;;5058049;28;20024;-43
2020/12/03 12:29:50;;;;;;;22.95;15.45;;;7.30;94.70;;;;;;5058318;28;20078;-43
2020/12/03 12:32:15;;;;;;;22.38;16.08;;;7.30;94.70;;;;;;5057690;28;20025;-43
2020/12/03 12:34:44;;;;;;;22.70;15.93;;;7.30;94.80;;;;;;5059253;28;20024;-44
2020/12/03 12:37:11;;;;;;;21.35;15.50;;;7.30;94.50;;;;;;5051117;28;20052;-45
2020/12/03 12:39:38;;;;;;;19.38;13.88;;;7.20;94.30;;;;;;5048201;28;20036;-46
2020/12/03 12:42:05;;;;;;;21.05;14.15;;;7.20;94.50;;;;;;5048536;28;20693;-43
2020/12/03 12:44:31;;;;;;;21.83;14.48;;;7.20;94.50;;;;;;5048968;28;20024;-43
2020/12/03 12:46:58;;;;;;;18.17;13.75;;;7.20;94.40;;;;;;5048454;28;20395;-42
2020/12/03 12:49:25;;;;;;;19.08;13.52;;;7.20;94.50;;;;;;5047935;28;20037;-42
2020/12/03 12:51:51;;;;;;;19.17;14.32;;;7.20;94.60;;;;;;5048552;28;20021;-42
2020/12/03 12:54:18;;;;;;;17.77;14.35;;;7.30;94.50;;;;;;5047636;28;20036;-43
2020/12/03 12:56:47;;;;;;;19.10;13.60;;;7.20;94.50;;;;;;5048539;28;20051;-43
2020/12/03 12:59:16;;;;;;;18.63;12.40;;;7.20;94.60;;;;;;5048133;28;20033;-41
2020/12/03 13:01:43;;;;;;;17.17;12.30;;;7.20;94.70;;;;;;5047672;28;20629;-44
2020/12/03 13:04:09;;;;;;;16.02;12.55;;;7.20;94.70;;;;;;5047820;28;20565;-43
2020/12/03 13:06:34;;;;;;;15.20;11.32;;;7.30;94.80;;;;;;5048515;28;20065;-43
2020/12/03 13:09:00;;;;;;;15.75;12.30;;;7.30;94.80;;;;;;5047951;28;20044;-42
2020/12/03 13:11:25;;;;;;;15.70;11.45;;;7.20;94.70;;;;;;5047935;28;20033;-43